createdAt,value
2023-01-28T00:00:20.215Z,7.40
2023-01-28T00:02:48.521Z,7.28
2023-01-28T00:05:15.657Z,7.07
2023-01-28T00:07:42.456Z,7.53
2023-01-28T00:10:09.761Z,7.68
2023-01-28T00:12:36.343Z,8.18
2023-01-28T00:15:02.946Z,6.93
2023-01-28T00:17:29.823Z,7.10
2023-01-28T00:19:56.536Z,7.55
2023-01-28T00:22:23.151Z,8.35
2023-01-28T00:24:50.168Z,8.65
2023-01-28T00:27:16.825Z,8.57
2023-01-28T00:29:43.430Z,8.60
2023-01-28T00:32:11.161Z,9.05
2023-01-28T00:34:37.741Z,7.82
2023-01-28T00:37:07.084Z,7.68
2023-01-28T00:39:33.820Z,6.80
2023-01-28T00:42:01.120Z,8.75
2023-01-28T00:44:28.096Z,7.45
2023-01-28T00:46:54.776Z,6.97
2023-01-28T00:49:22.312Z,7.32
2023-01-28T00:51:49.096Z,7.78
2023-01-28T00:54:15.836Z,7.43
2023-01-28T00:56:42.373Z,7.38
2023-01-28T00:59:09.649Z,7.38
2023-01-28T01:01:36.291Z,8.30
2023-01-28T01:04:03.311Z,7.95
2023-01-28T01:06:32.032Z,8.23
2023-01-28T01:08:59.797Z,8.20
2023-01-28T01:11:26.379Z,8.52
2023-01-28T01:13:57.013Z,8.00
2023-01-28T01:16:25.819Z,7.80
2023-01-28T01:18:53.145Z,7.60
2023-01-28T01:21:21.133Z,7.95
2023-01-28T01:23:47.837Z,7.20
2023-01-28T01:26:15.098Z,7.25
2023-01-28T01:28:41.675Z,7.30
2023-01-28T01:31:16.118Z,7.35
2023-01-28T01:33:43.404Z,7.38
2023-01-28T01:36:10.628Z,6.43
2023-01-28T01:38:38.138Z,6.75
2023-01-28T01:41:05.447Z,6.93
2023-01-28T01:43:46.999Z,7.60
2023-01-28T01:46:14.033Z,7.03
2023-01-28T01:48:40.599Z,6.82
2023-01-28T01:51:12.940Z,7.32
2023-01-28T01:53:41.037Z,7.05
2023-01-28T01:56:09.082Z,8.02
2023-01-28T01:58:36.782Z,7.82
2023-01-28T02:01:04.306Z,8.05
2023-01-28T02:03:46.142Z,7.60
2023-01-28T02:06:13.451Z,8.10
2023-01-28T02:08:42.715Z,7.45
2023-01-28T02:11:10.370Z,6.57
2023-01-28T02:13:39.008Z,7.50
2023-01-28T02:16:06.235Z,8.35
2023-01-28T02:18:33.457Z,8.05
2023-01-28T02:21:12.416Z,8.02
2023-01-28T02:23:55.350Z,7.97
2023-01-28T02:26:40.396Z,8.55
2023-01-28T02:29:26.386Z,9.23
2023-01-28T02:31:56.089Z,8.60
2023-01-28T02:34:32.302Z,9.10
2023-01-28T02:37:04.804Z,9.60
2023-01-28T02:39:41.476Z,8.32
2023-01-28T02:42:10.888Z,8.57
2023-01-28T02:44:38.296Z,8.82
2023-01-28T02:47:30.236Z,10.10
2023-01-28T02:49:58.561Z,9.35
2023-01-28T02:52:51.157Z,9.68
2023-01-28T02:55:39.650Z,10.20
2023-01-28T02:58:21.830Z,9.95
2023-01-28T03:00:56.468Z,9.68
2023-01-28T03:03:42.093Z,9.40
2023-01-28T03:06:14.114Z,9.82
2023-01-28T03:09:13.556Z,9.88
2023-01-28T03:12:02.254Z,9.00
2023-01-28T03:14:48.490Z,8.65
2023-01-28T03:17:57.057Z,7.00
2023-01-28T03:20:45.401Z,7.13
2023-01-28T03:23:33.488Z,7.20
2023-01-28T03:26:20.223Z,7.88
2023-01-28T03:29:07.600Z,8.35
2023-01-28T03:31:53.747Z,8.02
2023-01-28T03:34:40.751Z,8.18
2023-01-28T03:37:09.134Z,8.75
2023-01-28T03:40:01.932Z,8.77
2023-01-28T03:42:30.873Z,8.50
2023-01-28T03:45:05.479Z,8.65
2023-01-28T03:47:32.846Z,7.50
2023-01-28T03:50:01.684Z,8.18
2023-01-28T03:52:32.718Z,9.13
2023-01-28T03:55:16.415Z,8.98
2023-01-28T03:57:45.172Z,9.65
2023-01-28T04:00:12.750Z,9.98
2023-01-28T04:02:42.107Z,10.13
2023-01-28T04:05:13.905Z,10.43
2023-01-28T04:07:46.019Z,10.03
2023-01-28T04:10:20.528Z,10.10
2023-01-28T04:12:54.425Z,9.93
2023-01-28T04:15:24.057Z,10.07
2023-01-28T04:17:51.216Z,9.25
2023-01-28T04:20:27.224Z,9.98
2023-01-28T04:22:55.390Z,9.18
2023-01-28T04:25:22.864Z,9.05
2023-01-28T04:27:49.810Z,9.63
2023-01-28T04:30:25.506Z,9.93
2023-01-28T04:33:15.426Z,10.25
2023-01-28T04:36:02.411Z,10.32
2023-01-28T04:38:52.238Z,10.13
2023-01-28T04:41:29.969Z,8.93
2023-01-28T04:44:02.749Z,10.07
2023-01-28T04:46:35.643Z,8.68
2023-01-28T04:49:09.322Z,8.68
2023-01-28T04:51:51.029Z,6.65
2023-01-28T04:57:13.662Z,6.70
2023-01-28T04:59:40.308Z,7.45
2023-01-28T05:02:07.187Z,6.60
2023-01-28T05:04:33.824Z,7.05
2023-01-28T05:07:01.040Z,7.28
2023-01-28T05:09:32.236Z,7.18
2023-01-28T05:11:58.893Z,8.25
2023-01-28T05:14:25.600Z,8.27
2023-01-28T05:17:00.186Z,8.48
2023-01-28T05:19:27.791Z,7.38
2023-01-28T05:21:55.906Z,8.20
2023-01-28T05:24:43.825Z,8.27
2023-01-28T05:27:10.519Z,7.03
2023-01-28T05:29:37.173Z,7.82
2023-01-28T05:32:04.147Z,8.60
2023-01-28T05:34:31.468Z,7.20
2023-01-28T05:37:01.891Z,8.13
2023-01-28T05:39:31.977Z,8.88
2023-01-28T05:41:58.923Z,7.65
2023-01-28T05:44:26.115Z,7.75
2023-01-28T05:47:11.480Z,9.45
2023-01-28T05:49:49.524Z,8.88
2023-01-28T05:52:35.163Z,9.13
2023-01-28T05:55:03.124Z,9.27
2023-01-28T05:57:29.786Z,9.40
2023-01-28T05:59:56.786Z,9.88
2023-01-28T06:02:23.421Z,9.93
2023-01-28T06:04:53.447Z,9.15
2023-01-28T06:07:20.456Z,9.18
2023-01-28T06:09:48.454Z,9.55
2023-01-28T06:12:18.607Z,9.75
2023-01-28T06:15:11.639Z,10.02
2023-01-28T06:18:01.463Z,9.95
2023-01-28T06:20:32.276Z,9.95
2023-01-28T06:23:00.111Z,10.52
2023-01-28T06:25:27.733Z,10.68
2023-01-28T06:27:59.734Z,11.05
2023-01-28T06:30:26.344Z,10.43
2023-01-28T06:32:55.770Z,10.30
2023-01-28T06:35:22.675Z,10.73
2023-01-28T06:37:49.231Z,10.70
2023-01-28T06:40:16.317Z,9.07
2023-01-28T06:42:43.111Z,10.80
2023-01-28T06:45:09.939Z,9.80
2023-01-28T06:47:38.427Z,10.00
2023-01-28T06:50:05.249Z,9.13
2023-01-28T06:52:31.761Z,9.68
2023-01-28T06:54:58.327Z,9.75
2023-01-28T06:57:25.291Z,8.75
2023-01-28T06:59:52.313Z,9.93
2023-01-28T07:02:19.002Z,10.95
2023-01-28T07:04:45.711Z,10.25
2023-01-28T07:07:12.231Z,11.38
2023-01-28T07:09:38.998Z,11.02
2023-01-28T07:12:06.131Z,10.77
2023-01-28T07:14:32.796Z,11.65
2023-01-28T07:16:59.374Z,11.23
2023-01-28T07:19:26.258Z,11.27
2023-01-28T07:21:52.901Z,10.70
2023-01-28T07:24:19.808Z,10.68
2023-01-28T07:26:47.933Z,10.80
2023-01-28T07:29:14.978Z,10.90
2023-01-28T07:31:43.876Z,10.73
2023-01-28T07:34:10.754Z,11.13
2023-01-28T07:36:37.337Z,10.65
2023-01-28T07:39:03.979Z,9.85
2023-01-28T07:41:30.582Z,9.50
2023-01-28T07:44:04.649Z,10.65
2023-01-28T07:46:31.203Z,10.85
2023-01-28T07:48:57.996Z,11.48
2023-01-28T07:51:24.564Z,10.85
2023-01-28T07:53:51.599Z,10.98
2023-01-28T07:56:18.535Z,10.52
2023-01-28T07:58:45.156Z,8.85
2023-01-28T08:01:14.189Z,8.90
2023-01-28T08:03:41.043Z,8.20
2023-01-28T08:06:08.286Z,8.23
2023-01-28T08:08:34.933Z,8.77
2023-01-28T08:11:07.166Z,9.07
2023-01-28T08:13:33.682Z,10.13
2023-01-28T08:16:00.415Z,10.05
2023-01-28T08:18:27.149Z,9.48
2023-01-28T08:20:57.927Z,11.13
2023-01-28T08:23:26.983Z,10.93
2023-01-28T08:25:53.865Z,10.90
2023-01-28T08:28:21.377Z,10.32
2023-01-28T08:30:48.250Z,10.60
2023-01-28T08:33:15.577Z,10.15
2023-01-28T08:35:42.483Z,9.48
2023-01-28T08:38:10.711Z,10.05
2023-01-28T08:40:37.603Z,9.95
2023-01-28T08:43:04.692Z,10.02
2023-01-28T08:45:32.150Z,10.55
2023-01-28T08:48:00.380Z,9.82
2023-01-28T08:50:28.523Z,9.52
2023-01-28T08:52:56.485Z,9.52
2023-01-28T08:55:23.344Z,8.55
2023-01-28T08:57:50.217Z,8.20
2023-01-28T09:00:17.418Z,7.93
2023-01-28T09:02:44.284Z,8.10
2023-01-28T09:05:11.152Z,9.50
2023-01-28T09:07:38.237Z,9.55
2023-01-28T09:10:05.374Z,8.85
2023-01-28T09:12:32.850Z,8.45
2023-01-28T09:14:59.489Z,8.32
2023-01-28T09:17:26.166Z,9.55
2023-01-28T09:19:52.658Z,8.98
2023-01-28T09:22:19.599Z,8.75
2023-01-28T09:24:46.340Z,6.38
2023-01-28T09:27:12.911Z,5.78
2023-01-28T09:29:39.514Z,7.47
2023-01-28T09:32:07.327Z,6.85
2023-01-28T09:34:34.189Z,6.53
2023-01-28T09:37:00.941Z,7.38
2023-01-28T09:39:28.556Z,7.57
2023-01-28T09:42:04.419Z,7.55
2023-01-28T09:44:51.976Z,7.75
2023-01-28T09:47:22.840Z,8.30
2023-01-28T09:49:51.177Z,7.80
2023-01-28T09:52:19.244Z,7.55
2023-01-28T09:54:50.747Z,7.07
2023-01-28T09:57:20.988Z,6.65
2023-01-28T09:59:47.630Z,6.85
2023-01-28T10:02:26.652Z,6.65
2023-01-28T10:05:12.181Z,6.93
2023-01-28T10:10:14.531Z,6.32
2023-01-28T10:12:43.892Z,7.15
2023-01-28T10:15:29.087Z,6.22
2023-01-28T10:18:14.608Z,6.10
2023-01-28T10:20:42.925Z,6.03
2023-01-28T10:23:22.054Z,5.88
2023-01-28T10:25:48.801Z,6.25
2023-01-28T10:28:20.698Z,6.47
2023-01-28T10:30:47.749Z,7.05
2023-01-28T10:33:18.078Z,6.45
2023-01-28T10:35:44.769Z,6.78
2023-01-28T10:38:14.601Z,6.50
2023-01-28T10:40:41.680Z,6.50
2023-01-28T10:43:09.065Z,7.30
2023-01-28T10:45:42.482Z,6.55
2023-01-28T10:48:15.270Z,6.22
2023-01-28T10:50:50.396Z,6.10
2023-01-28T10:53:16.990Z,6.75
2023-01-28T10:55:52.035Z,6.05
2023-01-28T11:00:45.057Z,5.20
2023-01-28T11:03:21.646Z,6.00
2023-01-28T11:05:52.374Z,5.82
2023-01-28T11:08:19.389Z,6.82
2023-01-28T11:10:47.291Z,6.15
2023-01-28T11:13:18.705Z,6.22
2023-01-28T11:16:14.045Z,5.63
2023-01-28T11:18:46.914Z,5.75
2023-01-28T11:21:18.769Z,5.20
2023-01-28T11:23:59.090Z,5.18
2023-01-28T11:26:32.277Z,4.75
2023-01-28T11:28:59.035Z,5.60
2023-01-28T11:31:26.670Z,5.57
2023-01-28T11:33:57.997Z,5.50
2023-01-28T11:36:28.764Z,5.10
2023-01-28T11:38:55.767Z,4.97
2023-01-28T11:41:29.662Z,4.90
2023-01-28T11:43:57.762Z,4.72
2023-01-28T11:46:50.866Z,4.25
2023-01-28T11:49:32.772Z,4.68
2023-01-28T11:52:02.557Z,4.95
2023-01-28T11:54:38.622Z,4.53
2023-01-28T11:57:24.572Z,3.35
2023-01-28T12:00:00.108Z,3.78
2023-01-28T12:02:45.641Z,3.33
2023-01-28T12:07:49.391Z,3.20
2023-01-28T12:10:18.828Z,3.30
2023-01-28T12:12:53.023Z,3.38
2023-01-28T12:15:43.397Z,3.50
2023-01-28T12:18:19.065Z,4.22
2023-01-28T12:21:09.535Z,4.07
2023-01-28T12:23:50.373Z,3.92
2023-01-28T12:26:31.302Z,3.88
2023-01-28T12:29:06.309Z,3.65
2023-01-28T12:31:35.254Z,3.50
2023-01-28T12:34:05.087Z,4.07
2023-01-28T12:36:50.519Z,3.90
2023-01-28T12:41:50.208Z,3.63
2023-01-28T12:44:25.182Z,3.85
2023-01-28T12:46:53.589Z,3.80
2023-01-28T12:49:30.835Z,3.88
2023-01-28T12:52:07.931Z,3.67
2023-01-28T12:54:57.759Z,3.30
2023-01-28T12:57:31.812Z,4.20
2023-01-28T12:59:58.427Z,4.22
2023-01-28T13:02:27.295Z,4.25
2023-01-28T13:05:09.177Z,4.07
2023-01-28T13:07:35.969Z,4.28
2023-01-28T13:10:05.665Z,4.55
2023-01-28T13:12:33.065Z,3.85
2023-01-28T13:15:00.519Z,3.83
2023-01-28T13:17:31.156Z,3.20
2023-01-28T13:20:00.703Z,3.03
2023-01-28T13:22:35.344Z,2.90
2023-01-28T13:25:14.522Z,3.58
2023-01-28T13:27:41.348Z,3.40
2023-01-28T13:30:25.906Z,4.07
2023-01-28T13:33:00.196Z,3.63
2023-01-28T13:35:31.386Z,3.30
2023-01-28T13:37:58.601Z,3.72
2023-01-28T13:40:29.088Z,3.30
2023-01-28T13:43:02.375Z,3.50
2023-01-28T13:45:29.758Z,3.42
2023-01-28T13:48:14.609Z,3.08
2023-01-28T13:50:43.083Z,2.75
2023-01-28T13:53:35.722Z,2.80
2023-01-28T13:56:04.948Z,2.92
2023-01-28T13:58:31.560Z,3.03
2023-01-28T14:01:00.946Z,2.85
2023-01-28T14:03:46.422Z,2.95
2023-01-28T14:06:31.290Z,2.85
2023-01-28T14:09:16.707Z,2.90
2023-01-28T14:11:57.757Z,3.15
2023-01-28T14:14:42.925Z,3.28
2023-01-28T14:17:28.475Z,3.05
2023-01-28T14:22:21.822Z,3.00
2023-01-28T14:24:48.828Z,3.00
2023-01-28T14:27:15.347Z,2.80
2023-01-28T14:29:45.883Z,2.80
2023-01-28T14:32:17.088Z,2.90
2023-01-28T14:34:44.646Z,2.67
2023-01-28T14:37:15.958Z,3.00
2023-01-28T14:39:42.882Z,2.97
2023-01-28T14:42:31.124Z,3.00
2023-01-28T14:45:16.554Z,3.30
2023-01-28T14:48:00.301Z,3.38
2023-01-28T14:50:45.855Z,3.50
2023-01-28T14:53:24.940Z,3.60
2023-01-28T14:55:53.521Z,3.33
2023-01-28T14:58:25.935Z,3.45
2023-01-28T15:00:56.690Z,3.10
2023-01-28T15:03:25.245Z,3.60
2023-01-28T15:06:01.976Z,3.88
2023-01-28T15:08:28.899Z,3.45
2023-01-28T15:10:55.688Z,3.95
2023-01-28T15:13:29.502Z,3.53
2023-01-28T15:15:58.504Z,4.05
2023-01-28T15:18:30.613Z,3.70
2023-01-28T15:20:58.077Z,3.92
2023-01-28T15:23:28.557Z,3.70
2023-01-28T15:25:55.561Z,4.60
2023-01-28T15:28:30.235Z,3.60
2023-01-28T15:30:57.386Z,3.60
2023-01-28T15:33:24.519Z,5.78
2023-01-28T15:35:52.357Z,10.90
2023-01-28T15:38:18.925Z,17.20
2023-01-28T15:40:48.043Z,10.07
2023-01-28T15:43:24.859Z,7.03
2023-01-28T15:45:55.489Z,6.47
2023-01-28T15:48:27.047Z,6.28
2023-01-28T15:50:59.816Z,6.82
2023-01-28T15:53:28.810Z,7.28
2023-01-28T15:56:04.065Z,5.80
2023-01-28T15:58:33.507Z,6.18
2023-01-28T16:01:04.696Z,5.30
2023-01-28T16:03:31.549Z,4.90
2023-01-28T16:06:00.923Z,4.82
2023-01-28T16:08:34.818Z,4.95
2023-01-28T16:11:01.735Z,5.57
2023-01-28T16:13:29.493Z,4.68
2023-01-28T16:15:57.272Z,4.90
2023-01-28T16:18:24.436Z,5.30
2023-01-28T16:20:51.506Z,4.32
2023-01-28T16:23:21.881Z,4.43
2023-01-28T16:25:58.318Z,4.40
2023-01-28T16:28:25.009Z,5.15
2023-01-28T16:30:51.835Z,4.55
2023-01-28T16:33:19.905Z,5.13
2023-01-28T16:36:04.507Z,4.70
2023-01-28T16:38:33.126Z,5.03
2023-01-28T16:41:00.020Z,4.63
2023-01-28T16:43:26.548Z,4.75
2023-01-28T16:45:53.239Z,4.38
2023-01-28T16:48:19.940Z,5.05
2023-01-28T16:50:47.152Z,5.35
2023-01-28T16:53:34.115Z,5.10
2023-01-28T16:56:01.191Z,5.45
2023-01-28T16:58:28.117Z,5.65
2023-01-28T17:00:55.217Z,5.30
2023-01-28T17:03:22.317Z,5.80
2023-01-28T17:05:49.729Z,5.53
2023-01-28T17:08:17.128Z,5.90
2023-01-28T17:10:44.093Z,5.80
2023-01-28T17:13:10.825Z,6.00
2023-01-28T17:15:37.359Z,5.53
2023-01-28T17:18:04.025Z,5.75
2023-01-28T17:20:30.695Z,5.00
2023-01-28T17:22:57.468Z,4.75
2023-01-28T17:25:24.135Z,5.22
2023-01-28T17:27:50.900Z,6.55
2023-01-28T17:30:18.760Z,7.28
2023-01-28T17:32:45.437Z,10.88
2023-01-28T17:35:12.367Z,9.05
2023-01-28T17:37:39.005Z,8.35
2023-01-28T17:40:05.908Z,7.88
2023-01-28T17:42:32.536Z,5.72
2023-01-28T17:45:03.259Z,5.38
2023-01-28T17:47:30.904Z,6.07
2023-01-28T17:49:57.882Z,5.30
2023-01-28T17:52:24.589Z,7.55
2023-01-28T17:54:51.494Z,5.97
2023-01-28T17:57:18.350Z,9.57
2023-01-28T17:59:45.124Z,8.30
2023-01-28T18:02:12.224Z,7.68
2023-01-28T18:04:39.587Z,6.75
2023-01-28T18:07:10.907Z,6.78
2023-01-28T18:09:38.367Z,6.68
2023-01-28T18:12:06.654Z,6.18
2023-01-28T18:14:33.676Z,6.35
2023-01-28T18:17:00.213Z,6.55
2023-01-28T18:19:27.217Z,6.13
2023-01-28T18:21:58.385Z,7.10
2023-01-28T18:24:26.164Z,5.03
2023-01-28T18:26:55.636Z,5.50
2023-01-28T18:29:24.337Z,5.78
2023-01-28T18:31:51.822Z,7.32
2023-01-28T18:34:18.461Z,7.57
2023-01-28T18:36:45.357Z,8.48
2023-01-28T18:39:12.940Z,8.50
2023-01-28T18:41:39.891Z,10.13
2023-01-28T18:44:08.172Z,7.90
2023-01-28T18:46:34.780Z,9.15
2023-01-28T18:49:01.616Z,8.20
2023-01-28T18:51:30.405Z,8.57
2023-01-28T18:54:00.759Z,6.35
2023-01-28T18:56:28.263Z,6.20
2023-01-28T18:59:05.081Z,5.72
2023-01-28T19:01:32.691Z,5.60
2023-01-28T19:03:59.604Z,5.55
2023-01-28T19:06:27.376Z,5.50
2023-01-28T19:08:58.036Z,5.80
2023-01-28T19:11:25.863Z,7.63
2023-01-28T19:13:53.068Z,5.75
2023-01-28T19:16:20.887Z,6.03
2023-01-28T19:19:07.718Z,5.97
2023-01-28T19:21:35.072Z,5.95
2023-01-28T19:24:03.349Z,5.88
2023-01-28T19:26:30.945Z,5.22
2023-01-28T19:28:57.804Z,5.22
2023-01-28T19:31:24.977Z,5.20
2023-01-28T19:33:59.565Z,5.80
2023-01-28T19:36:27.316Z,6.40
2023-01-28T19:38:56.974Z,7.07
2023-01-28T19:41:23.701Z,6.40
2023-01-28T19:43:50.325Z,8.00
2023-01-28T19:46:18.117Z,9.20
2023-01-28T19:48:45.832Z,9.30
2023-01-28T19:51:12.987Z,9.05
2023-01-28T19:53:40.479Z,9.05
2023-01-28T19:56:09.646Z,8.13
2023-01-28T19:58:37.448Z,7.63
2023-01-28T20:01:11.618Z,6.93
2023-01-28T20:03:38.533Z,6.90
2023-01-28T20:06:06.255Z,6.75
2023-01-28T20:08:32.984Z,6.60
2023-01-28T20:11:05.685Z,6.20
2023-01-28T20:13:32.938Z,6.00
2023-01-28T20:16:02.605Z,6.85
2023-01-28T20:18:29.249Z,6.82
2023-01-28T20:20:56.247Z,6.47
2023-01-28T20:23:23.356Z,6.90
2023-01-28T20:25:58.626Z,6.80
2023-01-28T20:28:25.703Z,6.85
2023-01-28T20:30:53.267Z,7.18
2023-01-28T20:33:20.937Z,7.50
2023-01-28T20:35:47.536Z,7.32
2023-01-28T20:38:14.752Z,8.00
2023-01-28T20:40:42.439Z,7.28
2023-01-28T20:43:09.687Z,7.15
2023-01-28T20:45:36.493Z,7.22
2023-01-28T20:48:03.372Z,7.35
2023-01-28T20:50:30.045Z,7.38
2023-01-28T20:52:56.630Z,7.38
2023-01-28T20:55:23.125Z,7.10
2023-01-28T20:57:51.917Z,7.53
2023-01-28T21:00:18.836Z,7.13
2023-01-28T21:02:46.243Z,7.82
2023-01-28T21:05:13.108Z,7.15
2023-01-28T21:07:39.795Z,8.10
2023-01-28T21:10:06.579Z,7.15
2023-01-28T21:12:33.398Z,7.47
2023-01-28T21:14:59.957Z,7.68
2023-01-28T21:17:26.518Z,7.80
2023-01-28T21:19:53.295Z,6.70
2023-01-28T21:22:20.476Z,7.63
2023-01-28T21:24:49.151Z,8.20
2023-01-28T21:27:16.077Z,8.20
2023-01-28T21:29:42.985Z,7.90
2023-01-28T21:32:09.929Z,8.10
2023-01-28T21:34:36.856Z,9.45
2023-01-28T21:37:03.585Z,8.27
2023-01-28T21:39:30.058Z,9.05
2023-01-28T21:41:56.958Z,7.82
2023-01-28T21:44:23.671Z,7.68
2023-01-28T21:46:50.305Z,8.80
2023-01-28T21:49:16.919Z,8.75
2023-01-28T21:51:46.475Z,8.88
2023-01-28T21:54:17.385Z,10.20
2023-01-28T21:56:45.241Z,9.32
2023-01-28T21:59:33.180Z,8.98
2023-01-28T22:02:09.539Z,9.15
2023-01-28T22:04:37.516Z,8.85
2023-01-28T22:07:05.270Z,8.88
2023-01-28T22:09:33.450Z,8.07
2023-01-28T22:12:00.641Z,8.93
2023-01-28T22:14:27.681Z,8.45
2023-01-28T22:16:54.531Z,9.15
2023-01-28T22:19:21.665Z,8.65
2023-01-28T22:21:48.183Z,9.25
2023-01-28T22:24:16.474Z,9.05
2023-01-28T22:26:44.036Z,8.90
2023-01-28T22:29:11.959Z,9.27
2023-01-28T22:31:38.988Z,9.52
2023-01-28T22:34:06.185Z,9.25
2023-01-28T22:36:33.281Z,9.68
2023-01-28T22:39:00.870Z,9.25
2023-01-28T22:41:27.570Z,9.30
2023-01-28T22:43:54.504Z,8.82
2023-01-28T22:46:22.188Z,9.20
2023-01-28T22:48:49.414Z,8.70
2023-01-28T22:51:16.091Z,9.18
2023-01-28T22:53:43.014Z,8.93
2023-01-28T22:56:09.590Z,9.68
2023-01-28T22:58:36.424Z,9.27
2023-01-28T23:01:03.025Z,9.55
2023-01-28T23:03:29.863Z,9.23
2023-01-28T23:06:00.776Z,9.32
2023-01-28T23:08:28.295Z,9.68
2023-01-28T23:10:59.905Z,8.90
2023-01-28T23:13:26.893Z,8.80
2023-01-28T23:16:13.717Z,8.05
2023-01-28T23:18:58.753Z,9.00
2023-01-28T23:21:47.374Z,8.63
2023-01-28T23:24:21.522Z,8.13
2023-01-28T23:26:52.634Z,7.55
2023-01-28T23:29:20.233Z,7.50
2023-01-28T23:31:47.832Z,8.32
2023-01-28T23:34:16.272Z,7.15
2023-01-28T23:36:42.979Z,8.23
2023-01-28T23:39:09.963Z,8.65
2023-01-28T23:41:36.693Z,8.35
2023-01-28T23:44:03.596Z,8.00
2023-01-28T23:46:38.964Z,8.18
2023-01-28T23:49:06.834Z,8.18
2023-01-28T23:51:33.440Z,9.50
2023-01-28T23:54:00.032Z,9.00
2023-01-28T23:56:26.729Z,9.40
2023-01-28T23:58:53.215Z,9.02
